createdAt,value
2023-02-11T02:01:54.879Z,102693.60
2023-02-11T02:04:37.633Z,102697.40
2023-02-11T02:07:29.202Z,102699.00
2023-02-11T02:10:13.499Z,102693.60
2023-02-11T02:12:50.221Z,102690.80
2023-02-11T02:15:41.827Z,102697.80
2023-02-11T02:18:45.768Z,102698.80
2023-02-11T02:22:00.447Z,102695.40
2023-02-11T02:25:30.882Z,102696.40
2023-02-11T02:28:37.773Z,102697.80
2023-02-11T02:31:52.695Z,102699.20
2023-02-11T02:34:40.605Z,102695.40
2023-02-11T02:37:24.322Z,102693.20
2023-02-11T02:40:02.712Z,102692.80
2023-02-11T02:42:41.008Z,102686.80
2023-02-11T02:45:21.396Z,102687.00
2023-02-11T02:47:58.359Z,102683.80
2023-02-11T02:50:41.544Z,102678.20
2023-02-11T02:53:35.615Z,102673.40
2023-02-11T02:56:17.940Z,102681.20
2023-02-11T02:59:28.656Z,102673.80
2023-02-11T03:02:22.276Z,102670.80
2023-02-11T03:05:06.908Z,102667.00
2023-02-11T03:07:55.218Z,102664.20
2023-02-11T03:10:37.164Z,102659.20
2023-02-11T03:13:19.668Z,102663.60
2023-02-11T03:16:00.597Z,102654.20
2023-02-11T03:18:43.595Z,102651.20
2023-02-11T03:21:22.329Z,102653.80
2023-02-11T03:24:06.249Z,102658.00
2023-02-11T03:26:51.615Z,102658.20
2023-02-11T03:29:40.424Z,102649.20
2023-02-11T03:32:27.636Z,102641.80
2023-02-11T03:35:15.332Z,102641.60
2023-02-11T03:37:59.380Z,102636.00
2023-02-11T03:40:43.691Z,102631.00
2023-02-11T03:43:26.078Z,102634.20
2023-02-11T03:46:04.907Z,102635.00
2023-02-11T03:48:47.418Z,102635.80
2023-02-11T03:51:25.706Z,102631.00
2023-02-11T03:54:08.456Z,102627.20
2023-02-11T03:56:54.615Z,102633.00
2023-02-11T03:59:30.904Z,102630.60
2023-02-11T04:02:07.549Z,102626.00
2023-02-11T04:04:44.285Z,102618.60
2023-02-11T04:07:22.043Z,102617.20
2023-02-11T04:09:58.731Z,102617.80
2023-02-11T04:12:36.016Z,102618.60
2023-02-11T04:15:15.877Z,102612.60
2023-02-11T04:17:53.263Z,102610.80
2023-02-11T04:20:30.117Z,102615.20
2023-02-11T04:23:06.562Z,102617.80
2023-02-11T04:25:42.986Z,102612.20
2023-02-11T04:28:20.148Z,102606.60
2023-02-11T04:30:56.902Z,102608.00
2023-02-11T04:33:33.933Z,102608.40
2023-02-11T04:36:13.339Z,102599.20
2023-02-11T04:38:50.728Z,102601.20
2023-02-11T04:41:26.816Z,102606.00
2023-02-11T04:44:03.808Z,102599.40
2023-02-11T04:46:41.037Z,102599.80
2023-02-11T04:49:19.472Z,102596.80
2023-02-11T04:51:57.240Z,102601.80
2023-02-11T04:54:34.394Z,102601.00
2023-02-11T04:57:11.554Z,102595.20
2023-02-11T04:59:49.368Z,102591.80
2023-02-11T05:02:26.396Z,102598.00
2023-02-11T05:05:03.450Z,102598.80
2023-02-11T05:07:44.876Z,102600.80
2023-02-11T05:10:21.837Z,102597.00
2023-02-11T05:12:59.401Z,102592.20
2023-02-11T05:15:36.740Z,102592.00
2023-02-11T05:18:15.034Z,102597.00
2023-02-11T05:20:51.695Z,102595.60
2023-02-11T05:23:29.861Z,102597.60
2023-02-11T05:26:06.742Z,102598.00
2023-02-11T05:28:43.555Z,102596.60
2023-02-11T05:31:20.408Z,102595.40
2023-02-11T05:33:57.162Z,102590.60
2023-02-11T05:36:35.534Z,102600.00
2023-02-11T05:39:13.399Z,102600.80
2023-02-11T05:41:52.076Z,102594.00
2023-02-11T05:44:28.271Z,102590.00
2023-02-11T05:47:05.195Z,102593.80
2023-02-11T05:49:42.464Z,102594.80
2023-02-11T05:52:19.387Z,102590.40
2023-02-11T05:54:56.933Z,102588.80
2023-02-11T05:57:34.756Z,102591.00
2023-02-11T06:00:17.227Z,102592.40
2023-02-11T06:02:55.234Z,102580.20
2023-02-11T06:05:32.639Z,102580.20
2023-02-11T06:08:09.846Z,102585.80
2023-02-11T06:10:49.998Z,102586.20
2023-02-11T06:13:27.504Z,102580.40
2023-02-11T06:16:09.421Z,102579.60
2023-02-11T06:18:46.758Z,102579.00
2023-02-11T06:21:26.460Z,102573.60
2023-02-11T06:24:09.711Z,102563.40
2023-02-11T06:26:46.758Z,102563.40
2023-02-11T06:29:23.657Z,102572.60
2023-02-11T06:32:01.137Z,102573.60
2023-02-11T06:34:41.287Z,102563.80
2023-02-11T06:37:19.182Z,102571.00
2023-02-11T06:39:56.878Z,102575.00
2023-02-11T06:42:34.894Z,102578.40
2023-02-11T06:45:13.923Z,102574.40
2023-02-11T06:47:50.520Z,102575.40
2023-02-11T06:50:26.965Z,102584.40
2023-02-11T06:53:04.277Z,102578.00
2023-02-11T06:55:43.478Z,102580.00
2023-02-11T06:58:21.456Z,102586.60
2023-02-11T07:00:59.358Z,102588.40
2023-02-11T07:03:38.168Z,102583.20
2023-02-11T07:06:17.660Z,102584.80
2023-02-11T07:08:55.271Z,102584.40
2023-02-11T07:11:33.452Z,102586.80
2023-02-11T07:14:14.128Z,102579.60
2023-02-11T07:16:50.630Z,102583.20
2023-02-11T07:19:27.745Z,102580.80
2023-02-11T07:22:04.577Z,102584.80
2023-02-11T07:24:41.977Z,102587.60
2023-02-11T07:27:20.024Z,102587.00
2023-02-11T07:29:57.572Z,102581.60
2023-02-11T07:32:35.509Z,102587.40
2023-02-11T07:35:15.321Z,102589.80
2023-02-11T07:37:52.658Z,102588.80
2023-02-11T07:40:29.352Z,102591.60
2023-02-11T07:43:07.955Z,102594.00
2023-02-11T07:45:46.258Z,102598.00
2023-02-11T07:48:23.430Z,102597.80
2023-02-11T07:51:07.582Z,102594.40
2023-02-11T07:53:45.038Z,102591.60
2023-02-11T07:56:22.643Z,102589.60
2023-02-11T07:59:02.435Z,102585.80
2023-02-11T08:01:39.159Z,102584.60
2023-02-11T08:04:16.497Z,102586.40
2023-02-11T08:06:59.238Z,102591.00
2023-02-11T08:09:36.778Z,102592.20
2023-02-11T08:12:15.374Z,102588.20
2023-02-11T08:14:52.228Z,102591.80
2023-02-11T08:17:29.499Z,102590.80
2023-02-11T08:20:06.647Z,102586.00
2023-02-11T08:22:44.432Z,102588.00
2023-02-11T08:25:21.613Z,102589.40
2023-02-11T08:27:59.301Z,102590.20
2023-02-11T08:30:36.590Z,102590.60
2023-02-11T08:33:13.810Z,102585.20
2023-02-11T08:35:51.113Z,102581.00
2023-02-11T08:38:32.519Z,102583.00
2023-02-11T08:41:10.709Z,102585.80
2023-02-11T08:43:49.605Z,102589.00
2023-02-11T08:46:27.568Z,102586.00
2023-02-11T08:49:05.532Z,102589.60
2023-02-11T08:51:42.723Z,102588.20
2023-02-11T08:54:19.324Z,102586.40
2023-02-11T08:56:59.525Z,102595.60
2023-02-11T08:59:36.914Z,102599.00
2023-02-11T09:02:16.883Z,102599.00
2023-02-11T09:04:52.792Z,102605.60
2023-02-11T09:07:30.995Z,102611.80
2023-02-11T09:10:08.471Z,102606.80
2023-02-11T09:12:45.841Z,102605.40
2023-02-11T09:15:22.996Z,102597.80
2023-02-11T09:18:00.444Z,102609.00
2023-02-11T09:20:37.733Z,102604.60
2023-02-11T09:23:18.523Z,102602.80
2023-02-11T09:25:55.372Z,102607.40
2023-02-11T09:28:32.096Z,102607.00
2023-02-11T09:31:13.422Z,102606.80
2023-02-11T09:33:54.833Z,102604.20
2023-02-11T09:36:34.040Z,102606.60
2023-02-11T09:39:15.396Z,102597.00
2023-02-11T09:42:26.596Z,102594.20
2023-02-11T09:45:04.376Z,102597.40
2023-02-11T09:47:48.120Z,102594.20
2023-02-11T09:50:31.488Z,102600.00
2023-02-11T09:53:14.252Z,102596.00
2023-02-11T09:55:57.996Z,102600.00
2023-02-11T09:58:39.281Z,102604.60
2023-02-11T10:01:33.597Z,102607.60
2023-02-11T10:04:18.937Z,102610.60
2023-02-11T10:06:59.653Z,102615.00
2023-02-11T10:10:05.941Z,102611.60
2023-02-11T10:13:03.263Z,102609.00
2023-02-11T10:15:52.447Z,102602.60
2023-02-11T10:18:58.085Z,102608.00
2023-02-11T10:21:47.870Z,102609.00
2023-02-11T10:24:25.042Z,102602.20
2023-02-11T10:27:03.759Z,102600.20
2023-02-11T10:29:48.975Z,102595.60
2023-02-11T10:32:41.988Z,102603.80
2023-02-11T10:35:26.712Z,102605.80
2023-02-11T10:38:04.957Z,102596.40
2023-02-11T10:40:42.393Z,102592.80
2023-02-11T10:43:25.219Z,102599.20
2023-02-11T10:46:05.172Z,102603.20
2023-02-11T10:48:49.909Z,102604.20
2023-02-11T10:51:29.568Z,102603.00
2023-02-11T10:54:24.748Z,102596.00
2023-02-11T10:57:06.459Z,102593.20
2023-02-11T10:59:44.972Z,102577.60
2023-02-11T11:02:34.901Z,102573.80
2023-02-11T11:05:22.696Z,102570.00
2023-02-11T11:08:13.275Z,102567.40
2023-02-11T11:10:53.104Z,102563.20
2023-02-11T11:13:36.770Z,102559.60
2023-02-11T11:16:35.306Z,102551.20
2023-02-11T11:19:33.707Z,102548.40
2023-02-11T11:22:21.871Z,102541.00
2023-02-11T11:25:01.657Z,102528.80
2023-02-11T11:27:39.191Z,102522.20
2023-02-11T11:30:25.763Z,102515.00
2023-02-11T11:33:04.333Z,102509.40
2023-02-11T11:35:41.292Z,102508.20
2023-02-11T11:38:20.557Z,102507.40
2023-02-11T11:41:23.936Z,102505.40
2023-02-11T11:44:30.492Z,102510.00
2023-02-11T11:47:48.317Z,102512.00
2023-02-11T11:50:42.605Z,102505.00
2023-02-11T11:53:28.433Z,102509.20
2023-02-11T11:56:11.481Z,102503.00
2023-02-11T11:58:49.226Z,102503.80
2023-02-11T12:01:42.806Z,102499.20
2023-02-11T12:04:51.151Z,102502.00
2023-02-11T12:07:47.734Z,102488.60
2023-02-11T12:10:58.047Z,102489.20
2023-02-11T12:13:57.591Z,102492.60
2023-02-11T12:16:53.720Z,102483.40
2023-02-11T12:20:26.645Z,102483.20
2023-02-11T12:23:35.940Z,102477.20
2023-02-11T12:26:23.817Z,102469.60
2023-02-11T12:29:18.948Z,102468.60
2023-02-11T12:32:22.286Z,102464.40
2023-02-11T12:35:19.568Z,102460.00
2023-02-11T12:38:27.028Z,102460.40
2023-02-11T12:41:47.291Z,102454.00
2023-02-11T12:44:40.070Z,102454.80
2023-02-11T12:47:34.868Z,102447.20
2023-02-11T12:50:23.059Z,102443.80
2023-02-11T12:53:26.526Z,102434.80
2023-02-11T12:56:14.898Z,102429.40
2023-02-11T12:58:55.245Z,102423.00
2023-02-11T13:01:40.779Z,102423.80
2023-02-11T13:04:32.033Z,102417.40
2023-02-11T13:07:18.438Z,102412.40
2023-02-11T13:10:02.620Z,102410.00
2023-02-11T13:12:59.622Z,102416.40
2023-02-11T13:15:41.550Z,102413.80
2023-02-11T13:18:44.921Z,102409.40
2023-02-11T13:21:59.833Z,102410.80
2023-02-11T13:24:49.438Z,102404.00
2023-02-11T13:27:51.685Z,102409.40
2023-02-11T13:30:35.354Z,102407.00
2023-02-11T13:33:37.327Z,102400.20
2023-02-11T13:36:30.281Z,102395.60
2023-02-11T13:39:21.980Z,102387.80
2023-02-11T13:42:08.249Z,102384.40
2023-02-11T13:44:45.103Z,102384.80
2023-02-11T13:47:37.790Z,102384.40
2023-02-11T13:50:27.799Z,102383.00
2023-02-11T13:53:11.051Z,102378.80
2023-02-11T13:55:53.008Z,102377.00
2023-02-11T13:58:51.710Z,102373.60
2023-02-11T14:02:13.144Z,102369.40
2023-02-11T14:05:45.857Z,102363.40
2023-02-11T14:08:45.406Z,102362.00
2023-02-11T14:11:58.151Z,102359.20
2023-02-11T14:14:58.814Z,102349.20
2023-02-11T14:17:38.712Z,102345.00
2023-02-11T14:20:45.659Z,102343.80
2023-02-11T14:23:33.072Z,102345.60
2023-02-11T14:26:34.150Z,102342.20
2023-02-11T14:29:25.659Z,102338.60
2023-02-11T14:32:14.188Z,102334.20
2023-02-11T14:35:09.175Z,102328.20
2023-02-11T14:37:58.535Z,102326.60
2023-02-11T14:40:43.341Z,102321.60
2023-02-11T14:43:29.122Z,102316.40
2023-02-11T14:46:06.225Z,102320.20
2023-02-11T14:48:48.896Z,102321.00
2023-02-11T14:51:29.033Z,102310.60
2023-02-11T14:54:17.153Z,102302.80
2023-02-11T14:57:11.457Z,102307.40
2023-02-11T15:00:05.556Z,102306.20
2023-02-11T15:02:45.685Z,102304.80
2023-02-11T15:05:31.471Z,102306.80
2023-02-11T15:08:17.628Z,102296.80
2023-02-11T15:10:56.334Z,102295.40
2023-02-11T15:13:36.725Z,102297.40
2023-02-11T15:16:18.661Z,102298.00
2023-02-11T15:19:00.281Z,102301.40
2023-02-11T15:21:40.586Z,102298.80
2023-02-11T15:24:30.819Z,102291.60
2023-02-11T15:27:16.648Z,102288.40
2023-02-11T15:29:54.100Z,102289.60
2023-02-11T15:32:32.329Z,102288.00
2023-02-11T15:35:14.572Z,102284.80
2023-02-11T15:37:53.142Z,102282.20
2023-02-11T15:40:35.252Z,102277.20
2023-02-11T15:43:13.914Z,102271.40
2023-02-11T15:46:00.630Z,102271.80
2023-02-11T15:48:45.273Z,102271.60
2023-02-11T15:51:29.544Z,102273.40
2023-02-11T15:54:10.478Z,102275.60
2023-02-11T15:56:49.881Z,102276.80
2023-02-11T15:59:32.477Z,102276.80
2023-02-11T16:02:19.597Z,102272.20
2023-02-11T16:05:03.459Z,102270.00
2023-02-11T16:07:52.661Z,102274.20
2023-02-11T16:10:33.282Z,102271.00
2023-02-11T16:13:26.183Z,102270.60
2023-02-11T16:16:07.148Z,102271.80
2023-02-11T16:19:04.304Z,102266.80
2023-02-11T16:21:49.377Z,102272.40
2023-02-11T16:24:32.228Z,102274.40
2023-02-11T16:27:21.106Z,102275.80
2023-02-11T16:29:59.022Z,102273.00
2023-02-11T16:32:36.722Z,102276.60
2023-02-11T16:35:19.226Z,102274.60
2023-02-11T16:37:56.871Z,102276.20
2023-02-11T16:40:34.158Z,102272.60
2023-02-11T16:43:11.857Z,102275.80
2023-02-11T16:45:50.143Z,102276.60
2023-02-11T16:48:28.227Z,102279.20
2023-02-11T16:51:06.075Z,102281.60
2023-02-11T16:53:43.108Z,102283.40
2023-02-11T16:56:23.185Z,102283.40
2023-02-11T16:59:00.469Z,102291.00
2023-02-11T17:01:37.788Z,102285.80
2023-02-11T17:04:20.608Z,102291.40
2023-02-11T17:06:58.469Z,102295.20
2023-02-11T17:09:36.617Z,102297.40
2023-02-11T17:12:15.669Z,102294.20
2023-02-11T17:14:54.069Z,102294.40
2023-02-11T17:17:31.255Z,102296.60
2023-02-11T17:20:13.762Z,102300.60
2023-02-11T17:22:51.498Z,102300.60
2023-02-11T17:25:29.207Z,102299.60
2023-02-11T17:28:07.272Z,102304.60
2023-02-11T17:30:45.099Z,102303.60
2023-02-11T17:33:22.929Z,102306.40
2023-02-11T17:36:00.401Z,102306.00
2023-02-11T17:38:38.508Z,102308.60
2023-02-11T17:41:16.286Z,102309.80
2023-02-11T17:43:54.238Z,102316.20
2023-02-11T17:46:32.449Z,102313.40
2023-02-11T17:49:11.155Z,102317.40
2023-02-11T17:51:49.939Z,102321.40
2023-02-11T17:54:28.299Z,102319.00
2023-02-11T17:57:05.736Z,102320.20
2023-02-11T17:59:43.248Z,102320.20
2023-02-11T18:02:21.799Z,102316.00
2023-02-11T18:04:58.914Z,102312.00
2023-02-11T18:07:36.114Z,102309.80
2023-02-11T18:10:20.031Z,102305.20
2023-02-11T18:12:58.682Z,102303.80
2023-02-11T18:15:35.625Z,102309.40
2023-02-11T18:18:13.424Z,102303.60
2023-02-11T18:20:59.252Z,102301.20
2023-02-11T18:23:37.693Z,102303.80
2023-02-11T18:26:18.542Z,102307.80
2023-02-11T18:28:59.341Z,102309.40
2023-02-11T18:31:36.750Z,102307.00
2023-02-11T18:34:15.945Z,102309.00
2023-02-11T18:36:53.503Z,102310.80
2023-02-11T18:39:31.473Z,102311.80
2023-02-11T18:42:07.708Z,102313.80
2023-02-11T18:44:44.987Z,102307.20
2023-02-11T18:47:21.847Z,102311.60
2023-02-11T18:49:59.054Z,102314.40
2023-02-11T18:52:37.053Z,102312.20
2023-02-11T18:55:17.257Z,102309.20
2023-02-11T18:57:54.761Z,102314.40
2023-02-11T19:00:33.680Z,102317.00
2023-02-11T19:03:11.483Z,102314.60
2023-02-11T19:05:52.704Z,102316.60
2023-02-11T19:08:30.645Z,102315.60
2023-02-11T19:11:10.638Z,102318.60
2023-02-11T19:13:49.255Z,102317.80
2023-02-11T19:16:26.493Z,102317.20
2023-02-11T19:19:04.636Z,102318.80
2023-02-11T19:21:41.575Z,102317.00
2023-02-11T19:24:21.262Z,102319.20
2023-02-11T19:27:02.147Z,102321.60
2023-02-11T19:29:39.730Z,102323.60
2023-02-11T19:32:17.862Z,102321.00
2023-02-11T19:34:55.946Z,102319.40
2023-02-11T19:37:33.587Z,102316.00
2023-02-11T19:40:16.858Z,102315.20
2023-02-11T19:42:53.730Z,102313.00
2023-02-11T19:45:30.179Z,102318.00
2023-02-11T19:48:07.973Z,102317.00
2023-02-11T19:50:45.793Z,102311.20
2023-02-11T19:53:22.899Z,102313.00
2023-02-11T19:56:03.013Z,102312.00
2023-02-11T19:58:39.862Z,102309.20
2023-02-11T20:01:20.531Z,102313.00
2023-02-11T20:03:59.604Z,102316.00
2023-02-11T20:06:38.082Z,102318.00
2023-02-11T20:09:18.194Z,102314.80
2023-02-11T20:11:55.191Z,102311.80
2023-02-11T20:14:32.992Z,102313.20
2023-02-11T20:17:10.115Z,102315.20
2023-02-11T20:19:48.035Z,102315.20
2023-02-11T20:22:26.021Z,102321.80
2023-02-11T20:25:03.847Z,102325.00
2023-02-11T20:27:41.303Z,102321.00
2023-02-11T20:30:22.524Z,102314.80
2023-02-11T20:32:59.903Z,102314.40
2023-02-11T20:35:37.907Z,102315.40
2023-02-11T20:38:14.693Z,102308.40
2023-02-11T20:40:52.201Z,102312.80
2023-02-11T20:43:29.776Z,102316.00
2023-02-11T20:46:10.756Z,102313.00
2023-02-11T20:48:47.863Z,102314.20
2023-02-11T20:51:30.488Z,102306.60
2023-02-11T20:54:08.318Z,102304.40
2023-02-11T20:56:47.921Z,102304.00
2023-02-11T20:59:38.731Z,102306.40
2023-02-11T21:02:17.615Z,102303.00
2023-02-11T21:04:55.030Z,102308.80
2023-02-11T21:07:31.426Z,102313.80
2023-02-11T21:10:08.885Z,102306.00
2023-02-11T21:12:48.877Z,102309.60
2023-02-11T21:15:27.055Z,102312.80
2023-02-11T21:18:04.052Z,102305.40
2023-02-11T21:20:40.916Z,102306.80
2023-02-11T21:23:18.473Z,102306.40
2023-02-11T21:25:55.890Z,102304.80
2023-02-11T21:28:33.198Z,102306.80
2023-02-11T21:31:10.236Z,102304.60
2023-02-11T21:33:48.142Z,102305.00
2023-02-11T21:36:25.337Z,102301.80
2023-02-11T21:39:02.750Z,102299.80
2023-02-11T21:41:39.510Z,102298.00
2023-02-11T21:44:16.629Z,102300.00
2023-02-11T21:46:53.669Z,102296.40
2023-02-11T21:49:31.450Z,102295.60
2023-02-11T21:52:09.162Z,102305.80
2023-02-11T21:54:47.503Z,102308.00
2023-02-11T21:57:24.982Z,102318.00
2023-02-11T22:00:03.108Z,102320.80
2023-02-11T22:02:44.132Z,102317.60
2023-02-11T22:05:21.190Z,102320.20
2023-02-11T22:07:58.101Z,102316.60
2023-02-11T22:10:35.142Z,102316.40
2023-02-11T22:13:12.512Z,102314.40
2023-02-11T22:15:49.031Z,102312.80
2023-02-11T22:18:25.807Z,102309.00
2023-02-11T22:21:11.975Z,102309.40
2023-02-11T22:23:49.639Z,102307.20
2023-02-11T22:26:27.681Z,102307.20
2023-02-11T22:29:04.793Z,102307.60
2023-02-11T22:31:41.993Z,102306.20
2023-02-11T22:34:20.012Z,102302.80
2023-02-11T22:36:57.661Z,102299.20
2023-02-11T22:39:35.117Z,102306.20
2023-02-11T22:42:13.130Z,102311.20
2023-02-11T22:44:49.882Z,102315.80
2023-02-11T22:47:27.114Z,102306.20
2023-02-11T22:50:03.723Z,102307.40
2023-02-11T22:52:42.330Z,102302.40
2023-02-11T22:55:19.747Z,102304.00
2023-02-11T22:57:56.804Z,102311.20
2023-02-11T23:00:38.635Z,102310.20
2023-02-11T23:03:20.252Z,102305.80
2023-02-11T23:05:57.777Z,102312.20
2023-02-11T23:08:36.285Z,102310.40
2023-02-11T23:11:16.862Z,102309.40
2023-02-11T23:13:54.801Z,102309.20
2023-02-11T23:16:35.627Z,102313.40
2023-02-11T23:19:14.617Z,102308.80
2023-02-11T23:21:55.918Z,102309.40
2023-02-11T23:24:31.953Z,102314.20
2023-02-11T23:27:09.727Z,102311.00
2023-02-11T23:29:47.600Z,102310.00
2023-02-11T23:32:26.801Z,102312.80
2023-02-11T23:35:04.607Z,102312.80
2023-02-11T23:37:42.746Z,102321.20
2023-02-11T23:40:24.863Z,102304.00
2023-02-11T23:43:03.000Z,102303.00
2023-02-11T23:45:39.554Z,102300.40
2023-02-11T23:48:16.843Z,102300.80
2023-02-11T23:50:53.838Z,102301.20
2023-02-11T23:53:31.507Z,102299.20
2023-02-11T23:56:13.269Z,102305.20
2023-02-11T23:58:50.102Z,102303.00
